createdAt,value
2023-03-13T00:01:49.831Z,12.70
2023-03-13T00:04:17.698Z,14.90
2023-03-13T00:06:45.728Z,16.97
2023-03-13T00:09:17.771Z,15.10
2023-03-13T00:11:47.420Z,15.80
2023-03-13T00:14:15.499Z,16.27
2023-03-13T00:16:43.363Z,16.93
2023-03-13T00:19:11.888Z,15.07
2023-03-13T00:21:41.485Z,16.33
2023-03-13T00:24:12.733Z,15.90
2023-03-13T00:26:40.854Z,14.17
2023-03-13T00:29:08.647Z,16.43
2023-03-13T00:31:37.185Z,22.37
2023-03-13T00:34:05.716Z,16.83
2023-03-13T00:36:36.781Z,13.57
2023-03-13T00:39:07.529Z,16.57
2023-03-13T00:41:38.498Z,20.70
2023-03-13T00:44:06.938Z,17.80
2023-03-13T00:46:36.943Z,14.83
2023-03-13T00:49:05.274Z,20.73
2023-03-13T00:51:35.028Z,17.43
2023-03-13T00:54:04.409Z,14.70
2023-03-13T00:56:32.118Z,10.27
2023-03-13T00:59:01.882Z,15.07
2023-03-13T01:01:36.387Z,18.43
2023-03-13T01:04:13.240Z,18.73
2023-03-13T01:06:45.212Z,14.63
2023-03-13T01:09:17.285Z,11.90
2023-03-13T01:11:47.378Z,17.43
2023-03-13T01:14:20.846Z,14.87
2023-03-13T01:16:49.121Z,19.37
2023-03-13T01:19:18.129Z,14.40
2023-03-13T01:21:47.441Z,12.20
2023-03-13T01:24:17.004Z,17.53
2023-03-13T01:26:44.893Z,11.50
2023-03-13T01:29:12.677Z,16.47
2023-03-13T01:31:40.433Z,16.27
2023-03-13T01:34:11.135Z,14.27
2023-03-13T01:36:39.313Z,12.13
2023-03-13T01:39:07.474Z,11.70
2023-03-13T01:41:35.819Z,12.27
2023-03-13T01:44:04.209Z,13.63
2023-03-13T01:46:38.017Z,20.93
2023-03-13T01:49:38.357Z,15.50
2023-03-13T01:52:27.976Z,17.30
2023-03-13T01:55:16.629Z,16.33
2023-03-13T01:57:55.028Z,14.73
2023-03-13T02:00:35.847Z,15.77
2023-03-13T02:03:19.439Z,22.17
2023-03-13T02:05:51.279Z,13.20
2023-03-13T02:08:36.446Z,24.60
2023-03-13T02:12:10.294Z,15.83
2023-03-13T02:14:44.059Z,22.03
2023-03-13T02:17:13.082Z,12.90
2023-03-13T02:19:49.575Z,19.27
2023-03-13T02:23:10.222Z,17.20
2023-03-13T02:25:56.212Z,16.30
2023-03-13T02:28:39.664Z,14.07
2023-03-13T02:31:15.547Z,14.17
2023-03-13T02:33:45.032Z,14.23
2023-03-13T02:36:18.962Z,13.97
2023-03-13T02:39:03.144Z,19.27
2023-03-13T02:41:35.457Z,12.07
2023-03-13T02:44:03.928Z,23.67
2023-03-13T02:46:32.568Z,19.20
2023-03-13T02:49:23.111Z,16.77
2023-03-13T02:51:54.856Z,21.40
2023-03-13T02:54:35.961Z,22.17
2023-03-13T02:57:06.027Z,15.83
2023-03-13T02:59:35.323Z,24.43
2023-03-13T03:02:04.656Z,15.00
2023-03-13T03:04:33.029Z,23.30
2023-03-13T03:07:01.046Z,20.47
2023-03-13T03:09:29.802Z,22.57
2023-03-13T03:12:02.848Z,24.67
2023-03-13T03:14:31.374Z,21.23
2023-03-13T03:16:59.421Z,20.17
2023-03-13T03:19:28.188Z,18.70
2023-03-13T03:21:56.322Z,18.33
2023-03-13T03:24:24.150Z,20.27
2023-03-13T03:26:51.827Z,13.73
2023-03-13T03:29:28.214Z,11.00
2023-03-13T03:31:57.336Z,13.63
2023-03-13T03:34:26.459Z,17.00
2023-03-13T03:36:55.149Z,7.77
2023-03-13T03:39:23.266Z,14.10
2023-03-13T03:41:51.458Z,11.10
2023-03-13T03:44:19.357Z,17.43
2023-03-13T03:46:54.339Z,9.00
2023-03-13T03:49:23.561Z,9.00
2023-03-13T03:51:51.618Z,11.30
2023-03-13T03:54:25.185Z,7.87
2023-03-13T03:56:53.467Z,7.07
2023-03-13T03:59:21.883Z,10.83
2023-03-13T04:01:56.645Z,9.30
2023-03-13T04:04:27.483Z,8.37
2023-03-13T04:07:02.494Z,12.80
2023-03-13T04:09:32.346Z,10.30
2023-03-13T04:12:02.358Z,7.30
2023-03-13T04:14:34.708Z,9.67
2023-03-13T04:17:05.956Z,13.57
2023-03-13T04:19:34.812Z,5.83
2023-03-13T04:22:02.651Z,8.93
2023-03-13T04:24:30.890Z,9.87
2023-03-13T04:27:00.301Z,9.57
2023-03-13T04:29:28.451Z,10.90
2023-03-13T04:32:22.455Z,7.70
2023-03-13T04:35:20.296Z,6.80
2023-03-13T04:38:06.557Z,9.10
2023-03-13T04:40:50.773Z,9.80
2023-03-13T04:43:37.289Z,6.23
2023-03-13T04:46:15.400Z,7.47
2023-03-13T04:48:54.458Z,4.53
2023-03-13T04:51:47.779Z,6.60
2023-03-13T04:54:47.995Z,6.60
2023-03-13T04:57:42.219Z,8.37
2023-03-13T05:00:29.936Z,9.80
2023-03-13T05:03:29.802Z,10.87
2023-03-13T05:06:17.659Z,8.13
2023-03-13T05:09:05.516Z,12.00
2023-03-13T05:11:53.480Z,9.60
2023-03-13T05:14:40.064Z,10.27
2023-03-13T05:17:27.318Z,13.97
2023-03-13T05:20:15.544Z,11.30
2023-03-13T05:22:51.972Z,12.50
2023-03-13T05:25:38.656Z,10.97
2023-03-13T05:28:28.943Z,10.03
2023-03-13T05:31:18.297Z,13.87
2023-03-13T05:33:54.772Z,9.97
2023-03-13T05:36:45.510Z,10.10
2023-03-13T05:39:19.641Z,10.90
2023-03-13T05:42:13.744Z,11.60
2023-03-13T05:44:56.567Z,8.90
2023-03-13T05:47:42.912Z,10.80
2023-03-13T05:50:22.744Z,9.90
2023-03-13T05:53:05.840Z,11.43
2023-03-13T05:55:41.042Z,12.20
2023-03-13T05:58:20.630Z,10.80
2023-03-13T06:01:20.685Z,8.80
2023-03-13T06:03:58.709Z,8.40
2023-03-13T06:06:27.683Z,9.73
2023-03-13T06:08:57.236Z,10.03
2023-03-13T06:11:28.520Z,11.87
2023-03-13T06:13:56.693Z,9.30
2023-03-13T06:16:34.595Z,7.57
2023-03-13T06:19:24.496Z,7.90
2023-03-13T06:21:53.110Z,7.83
2023-03-13T06:24:21.054Z,6.03
2023-03-13T06:26:52.316Z,5.10
2023-03-13T06:29:20.161Z,5.50
2023-03-13T06:31:48.484Z,7.73
2023-03-13T06:34:16.426Z,6.53
2023-03-13T06:36:45.042Z,7.27
2023-03-13T06:39:13.830Z,7.50
2023-03-13T06:41:41.755Z,6.00
2023-03-13T06:44:09.465Z,6.37
2023-03-13T06:46:37.380Z,5.43
2023-03-13T06:49:06.035Z,6.80
2023-03-13T06:51:34.232Z,6.73
2023-03-13T06:54:04.152Z,5.57
2023-03-13T06:56:32.369Z,6.27
2023-03-13T06:59:00.222Z,8.43
2023-03-13T07:01:28.363Z,7.30
2023-03-13T07:03:56.260Z,5.70
2023-03-13T07:06:24.454Z,7.90
2023-03-13T07:08:52.188Z,6.50
2023-03-13T07:11:20.180Z,5.70
2023-03-13T07:13:47.902Z,6.87
2023-03-13T07:16:16.626Z,8.47
2023-03-13T07:18:47.553Z,7.73
2023-03-13T07:21:16.036Z,10.57
2023-03-13T07:23:43.804Z,7.67
2023-03-13T07:26:16.516Z,6.87
2023-03-13T07:28:44.639Z,4.93
2023-03-13T07:31:24.333Z,5.70
2023-03-13T07:33:56.572Z,5.63
2023-03-13T07:36:25.682Z,5.83
2023-03-13T07:38:54.816Z,6.97
2023-03-13T07:41:23.361Z,7.00
2023-03-13T07:43:51.231Z,6.30
2023-03-13T07:46:21.862Z,4.00
2023-03-13T07:48:50.322Z,8.73
2023-03-13T07:51:36.768Z,6.63
2023-03-13T07:54:09.085Z,6.20
2023-03-13T07:56:36.891Z,5.50
2023-03-13T07:59:06.856Z,5.07
2023-03-13T08:01:35.841Z,4.77
2023-03-13T08:04:04.362Z,4.30
2023-03-13T08:06:36.819Z,6.37
2023-03-13T08:09:05.760Z,7.63
2023-03-13T08:11:34.462Z,5.20
2023-03-13T08:14:02.325Z,5.43
2023-03-13T08:16:36.285Z,10.83
2023-03-13T08:19:06.339Z,5.73
2023-03-13T08:21:38.820Z,7.83
2023-03-13T08:24:13.038Z,8.63
2023-03-13T08:26:42.976Z,7.50
2023-03-13T08:29:15.459Z,7.20
2023-03-13T08:31:53.809Z,4.37
2023-03-13T08:34:21.555Z,6.03
2023-03-13T08:36:49.547Z,6.97
2023-03-13T08:39:21.333Z,5.10
2023-03-13T08:41:49.933Z,5.93
2023-03-13T08:44:20.844Z,8.93
2023-03-13T08:46:52.530Z,6.87
2023-03-13T08:49:23.808Z,4.77
2023-03-13T08:51:51.712Z,6.57
2023-03-13T08:54:19.433Z,6.40
2023-03-13T08:56:47.446Z,9.53
2023-03-13T08:59:15.737Z,8.47
2023-03-13T09:01:43.622Z,6.37
2023-03-13T09:04:11.474Z,5.67
2023-03-13T09:06:39.882Z,6.80
2023-03-13T09:09:09.702Z,8.00
2023-03-13T09:11:40.239Z,11.63
2023-03-13T09:14:10.505Z,9.33
2023-03-13T09:16:38.988Z,8.40
2023-03-13T09:19:07.065Z,5.23
2023-03-13T09:21:36.580Z,6.10
2023-03-13T09:24:05.589Z,6.17
2023-03-13T09:26:33.709Z,8.80
2023-03-13T09:29:01.524Z,5.63
2023-03-13T09:31:33.027Z,6.97
2023-03-13T09:34:02.132Z,7.10
2023-03-13T09:36:30.894Z,7.57
2023-03-13T09:39:01.259Z,6.53
2023-03-13T09:42:18.486Z,10.70
2023-03-13T09:45:13.431Z,7.93
2023-03-13T09:48:23.334Z,6.60
2023-03-13T09:51:12.735Z,9.50
2023-03-13T09:54:17.450Z,4.90
2023-03-13T09:57:12.876Z,5.60
2023-03-13T10:00:18.014Z,6.13
2023-03-13T10:03:11.664Z,3.10
2023-03-13T10:06:04.764Z,7.30
2023-03-13T10:08:37.190Z,4.97
2023-03-13T10:11:38.124Z,7.40
2023-03-13T10:14:22.806Z,7.53
2023-03-13T10:17:16.040Z,7.83
2023-03-13T10:19:44.490Z,6.73
2023-03-13T10:22:30.413Z,6.60
2023-03-13T10:25:32.507Z,10.20
2023-03-13T10:28:02.322Z,7.50
2023-03-13T10:30:43.597Z,7.00
2023-03-13T10:33:30.139Z,7.10
2023-03-13T10:36:13.198Z,6.87
2023-03-13T10:38:54.955Z,7.40
2023-03-13T10:41:38.665Z,3.63
2023-03-13T10:44:23.745Z,5.23
2023-03-13T10:46:52.362Z,6.63
2023-03-13T10:49:24.864Z,3.70
2023-03-13T10:52:08.329Z,4.13
2023-03-13T10:54:40.345Z,9.73
2023-03-13T10:57:18.894Z,5.90
2023-03-13T10:59:55.114Z,4.20
2023-03-13T11:02:39.226Z,5.07
2023-03-13T11:05:43.956Z,5.23
2023-03-13T11:08:23.534Z,4.43
2023-03-13T11:11:07.331Z,5.30
2023-03-13T11:13:44.834Z,4.23
2023-03-13T11:16:30.508Z,6.60
2023-03-13T11:19:35.827Z,3.23
2023-03-13T11:22:29.295Z,6.70
2023-03-13T11:26:16.600Z,3.40
2023-03-13T11:29:43.406Z,3.30
2023-03-13T11:32:55.445Z,4.73
2023-03-13T11:36:07.004Z,5.17
2023-03-13T11:38:46.116Z,3.57
2023-03-13T11:41:48.417Z,3.87
2023-03-13T11:45:29.584Z,5.33
2023-03-13T11:48:59.543Z,3.10
2023-03-13T11:52:09.803Z,3.47
2023-03-13T11:56:04.653Z,2.97
2023-03-13T11:59:17.103Z,2.47
2023-03-13T12:02:00.546Z,3.40
2023-03-13T12:04:49.891Z,2.20
2023-03-13T12:07:44.681Z,5.20
2023-03-13T12:10:44.307Z,2.27
2023-03-13T12:13:40.931Z,4.00
2023-03-13T12:16:24.158Z,2.20
2023-03-13T12:18:55.036Z,1.90
2023-03-13T12:21:49.119Z,2.30
2023-03-13T12:24:50.363Z,5.57
2023-03-13T12:28:11.824Z,5.40
2023-03-13T12:31:40.651Z,2.83
2023-03-13T12:35:13.152Z,3.47
2023-03-13T12:37:55.380Z,2.97
2023-03-13T12:41:33.218Z,2.77
2023-03-13T12:44:08.733Z,2.50
2023-03-13T12:47:33.177Z,8.33
2023-03-13T12:50:55.529Z,3.03
2023-03-13T12:53:36.440Z,3.63
2023-03-13T12:56:24.727Z,4.33
2023-03-13T12:59:38.629Z,4.20
2023-03-13T13:02:31.045Z,5.30
2023-03-13T13:05:03.081Z,5.27
2023-03-13T13:07:38.763Z,5.10
2023-03-13T13:10:12.997Z,2.63
2023-03-13T13:12:46.977Z,2.20
2023-03-13T13:15:28.673Z,3.97
2023-03-13T13:18:32.390Z,3.00
2023-03-13T13:21:03.341Z,3.30
2023-03-13T13:23:39.464Z,2.10
2023-03-13T13:26:36.508Z,2.90
2023-03-13T13:29:12.942Z,3.47
2023-03-13T13:31:52.463Z,3.83
2023-03-13T13:35:20.887Z,2.93
2023-03-13T13:37:50.198Z,3.13
2023-03-13T13:40:31.289Z,3.97
2023-03-13T13:43:06.183Z,3.60
2023-03-13T13:45:38.742Z,3.90
2023-03-13T13:48:36.638Z,5.00
2023-03-13T13:51:16.273Z,2.03
2023-03-13T13:54:19.393Z,2.40
2023-03-13T13:57:02.903Z,6.73
2023-03-13T14:00:16.742Z,7.80
2023-03-13T14:02:57.379Z,3.30
2023-03-13T14:05:32.985Z,2.07
2023-03-13T14:08:42.014Z,4.80
2023-03-13T14:11:30.609Z,2.73
2023-03-13T14:14:21.448Z,4.03
2023-03-13T14:16:59.762Z,3.87
2023-03-13T14:19:43.426Z,3.37
2023-03-13T14:22:14.648Z,4.27
2023-03-13T14:24:58.521Z,3.43
2023-03-13T14:27:27.999Z,4.40
2023-03-13T14:30:11.982Z,4.40
2023-03-13T14:32:42.513Z,4.10
2023-03-13T14:35:20.110Z,3.97
2023-03-13T14:38:04.844Z,2.17
2023-03-13T14:40:39.543Z,1.90
2023-03-13T14:43:41.816Z,2.10
2023-03-13T14:46:37.226Z,4.20
2023-03-13T14:49:27.161Z,2.93
2023-03-13T14:52:26.397Z,2.97
2023-03-13T14:55:28.572Z,3.17
2023-03-13T14:58:21.591Z,4.60
2023-03-13T15:00:50.742Z,2.80
2023-03-13T15:03:20.363Z,2.93
2023-03-13T15:06:11.469Z,3.50
2023-03-13T15:08:52.080Z,3.33
2023-03-13T15:11:34.926Z,3.40
2023-03-13T15:14:03.327Z,3.47
2023-03-13T15:16:31.362Z,2.00
2023-03-13T15:18:59.518Z,5.90
2023-03-13T15:21:34.043Z,4.33
2023-03-13T15:24:15.982Z,4.80
2023-03-13T15:26:45.733Z,7.53
2023-03-13T15:29:15.736Z,4.57
2023-03-13T15:31:43.474Z,4.20
2023-03-13T15:34:16.666Z,3.90
2023-03-13T15:36:44.476Z,2.73
2023-03-13T15:39:23.082Z,2.43
2023-03-13T15:41:51.308Z,2.40
2023-03-13T15:44:20.240Z,3.67
2023-03-13T15:46:48.169Z,3.50
2023-03-13T15:49:16.191Z,4.13
2023-03-13T15:51:43.944Z,3.27
2023-03-13T15:54:11.697Z,8.57
2023-03-13T15:56:40.339Z,4.50
2023-03-13T15:59:16.797Z,3.13
2023-03-13T16:01:45.384Z,5.73
2023-03-13T16:04:14.297Z,3.57
2023-03-13T16:06:42.001Z,4.00
2023-03-13T16:09:12.581Z,5.03
2023-03-13T16:11:40.488Z,5.30
2023-03-13T16:14:08.294Z,3.27
2023-03-13T16:16:37.816Z,3.00
2023-03-13T16:19:07.550Z,4.27
2023-03-13T16:21:40.408Z,4.13
2023-03-13T16:24:08.255Z,3.23
2023-03-13T16:26:37.178Z,2.17
2023-03-13T16:29:05.378Z,3.90
2023-03-13T16:31:34.497Z,5.60
2023-03-13T16:34:03.691Z,3.63
2023-03-13T16:36:33.345Z,4.77
2023-03-13T16:39:11.847Z,4.73
2023-03-13T16:41:39.780Z,4.00
2023-03-13T16:44:08.530Z,3.67
2023-03-13T16:46:45.987Z,5.20
2023-03-13T16:49:18.060Z,4.93
2023-03-13T16:51:46.963Z,2.90
2023-03-13T16:54:14.928Z,9.10
2023-03-13T16:56:45.069Z,4.80
2023-03-13T16:59:18.142Z,4.53
2023-03-13T17:01:49.608Z,3.30
2023-03-13T17:04:17.465Z,4.03
2023-03-13T17:06:46.132Z,4.87
2023-03-13T17:09:18.164Z,6.80
2023-03-13T17:11:46.177Z,5.40
2023-03-13T17:14:14.037Z,4.30
2023-03-13T17:16:46.503Z,5.93
2023-03-13T17:19:17.174Z,7.27
2023-03-13T17:21:45.115Z,3.67
2023-03-13T17:24:13.222Z,4.77
2023-03-13T17:26:41.981Z,5.60
2023-03-13T17:29:19.039Z,4.70
2023-03-13T17:31:48.234Z,5.03
2023-03-13T17:34:16.921Z,4.97
2023-03-13T17:36:45.811Z,5.47
2023-03-13T17:39:16.051Z,4.90
2023-03-13T17:41:43.727Z,4.97
2023-03-13T17:44:11.759Z,7.53
2023-03-13T17:46:46.726Z,6.83
2023-03-13T17:49:20.755Z,6.70
2023-03-13T17:51:50.208Z,5.00
2023-03-13T17:54:18.976Z,5.53
2023-03-13T17:56:47.708Z,5.97
2023-03-13T17:59:19.426Z,4.40
2023-03-13T18:01:47.382Z,3.90
2023-03-13T18:04:15.204Z,6.07
2023-03-13T18:06:48.892Z,9.50
2023-03-13T18:09:22.929Z,4.30
2023-03-13T18:11:51.149Z,5.40
2023-03-13T18:14:19.057Z,5.70
2023-03-13T18:16:50.663Z,3.60
2023-03-13T18:19:26.246Z,12.03
2023-03-13T18:21:56.371Z,9.93
2023-03-13T18:24:24.570Z,6.00
2023-03-13T18:26:52.264Z,5.47
2023-03-13T18:29:29.348Z,5.87
2023-03-13T18:32:00.667Z,8.90
2023-03-13T18:34:29.392Z,5.93
2023-03-13T18:37:03.640Z,5.77
2023-03-13T18:39:34.096Z,52.80
2023-03-13T18:42:02.213Z,8.43
2023-03-13T18:44:30.149Z,3.97
2023-03-13T18:46:58.032Z,4.73
2023-03-13T18:49:25.828Z,6.20
2023-03-13T18:51:54.391Z,7.90
2023-03-13T18:54:22.190Z,7.17
2023-03-13T18:56:50.152Z,6.23
2023-03-13T18:59:23.632Z,4.97
2023-03-13T19:01:51.597Z,7.37
2023-03-13T19:04:21.000Z,4.37
2023-03-13T19:06:49.235Z,5.20
2023-03-13T19:09:42.166Z,5.10
2023-03-13T19:12:12.721Z,6.83
2023-03-13T19:14:40.610Z,8.20
2023-03-13T19:17:29.622Z,7.93
2023-03-13T19:19:57.557Z,5.60
2023-03-13T19:22:27.007Z,5.80
2023-03-13T19:24:55.780Z,5.03
2023-03-13T19:27:24.010Z,6.40
2023-03-13T19:29:51.870Z,6.80
2023-03-13T19:32:20.307Z,10.17
2023-03-13T19:34:48.180Z,5.33
2023-03-13T19:37:19.062Z,4.60
2023-03-13T19:39:47.100Z,5.00
2023-03-13T19:42:14.871Z,16.73
2023-03-13T19:44:43.046Z,6.03
2023-03-13T19:47:15.813Z,5.90
2023-03-13T19:49:45.520Z,5.43
2023-03-13T19:52:13.467Z,5.27
2023-03-13T19:54:41.305Z,9.20
2023-03-13T19:57:12.045Z,7.40
2023-03-13T19:59:40.267Z,7.60
2023-03-13T20:02:11.744Z,6.87
2023-03-13T20:04:39.834Z,5.23
2023-03-13T20:07:08.357Z,9.97
2023-03-13T20:09:36.757Z,4.87
2023-03-13T20:12:05.864Z,5.10
2023-03-13T20:14:33.888Z,5.93
2023-03-13T20:17:03.360Z,6.37
2023-03-13T20:19:31.432Z,6.60
2023-03-13T20:22:03.713Z,9.73
2023-03-13T20:24:36.248Z,4.60
2023-03-13T20:27:04.685Z,5.53
2023-03-13T20:29:33.859Z,7.77
2023-03-13T20:32:04.734Z,10.70
2023-03-13T20:34:33.707Z,7.23
2023-03-13T20:37:01.476Z,5.17
2023-03-13T20:39:29.224Z,3.53
2023-03-13T20:41:57.585Z,4.20
2023-03-13T20:44:25.390Z,6.03
2023-03-13T20:46:53.262Z,5.00
2023-03-13T20:49:21.502Z,42.73
2023-03-13T20:51:49.073Z,6.20
2023-03-13T20:54:16.787Z,4.77
2023-03-13T20:56:44.579Z,4.80
2023-03-13T20:59:12.401Z,6.00
2023-03-13T21:01:40.190Z,5.23
2023-03-13T21:04:08.070Z,6.90
2023-03-13T21:06:35.834Z,7.27
2023-03-13T21:09:03.917Z,13.87
2023-03-13T21:11:33.748Z,7.10
2023-03-13T21:14:01.429Z,4.40
2023-03-13T21:16:29.220Z,7.03
2023-03-13T21:18:57.064Z,8.07
2023-03-13T21:21:25.279Z,7.00
2023-03-13T21:23:53.307Z,7.90
2023-03-13T21:26:21.860Z,10.93
2023-03-13T21:28:54.195Z,9.77
2023-03-13T21:31:22.296Z,11.80
2023-03-13T21:33:50.636Z,9.07
2023-03-13T21:36:22.157Z,6.73
2023-03-13T21:38:51.717Z,7.43
2023-03-13T21:41:22.759Z,4.80
2023-03-13T21:43:50.641Z,12.43
2023-03-13T21:46:20.954Z,5.60
2023-03-13T21:48:49.882Z,6.63
2023-03-13T21:51:17.891Z,6.97
2023-03-13T21:53:45.789Z,7.73
2023-03-13T21:56:15.825Z,4.77
2023-03-13T21:58:48.046Z,5.83
2023-03-13T22:01:16.741Z,3.30
2023-03-13T22:03:44.591Z,5.97
2023-03-13T22:06:18.849Z,5.00
2023-03-13T22:08:49.537Z,4.73
2023-03-13T22:11:18.181Z,7.90
2023-03-13T22:13:45.896Z,8.77
2023-03-13T22:16:13.837Z,5.90
2023-03-13T22:18:43.299Z,5.40
2023-03-13T22:21:11.060Z,5.20
2023-03-13T22:23:39.346Z,5.10
2023-03-13T22:26:07.586Z,8.50
2023-03-13T22:28:35.982Z,4.40
2023-03-13T22:31:07.612Z,7.33
2023-03-13T22:33:36.130Z,4.70
2023-03-13T22:36:05.403Z,4.50
2023-03-13T22:38:38.853Z,5.40
2023-03-13T22:41:14.105Z,8.13
2023-03-13T22:43:41.818Z,5.13
2023-03-13T22:46:12.306Z,4.60
2023-03-13T22:48:40.919Z,7.13
2023-03-13T22:51:14.481Z,8.57
2023-03-13T22:53:43.495Z,9.80
2023-03-13T22:56:16.273Z,5.43
2023-03-13T22:58:50.648Z,6.27
2023-03-13T23:01:19.706Z,4.53
2023-03-13T23:03:47.577Z,4.97
2023-03-13T23:06:25.927Z,4.10
2023-03-13T23:08:54.420Z,4.80
2023-03-13T23:11:22.223Z,7.20
2023-03-13T23:13:53.494Z,5.23
2023-03-13T23:16:21.617Z,7.30
2023-03-13T23:18:49.863Z,5.33
2023-03-13T23:21:18.185Z,5.37
2023-03-13T23:23:47.334Z,7.50
2023-03-13T23:26:16.970Z,4.50
2023-03-13T23:28:44.697Z,7.67
2023-03-13T23:31:22.336Z,4.87
2023-03-13T23:33:50.687Z,9.00
2023-03-13T23:36:20.288Z,3.57
2023-03-13T23:38:54.859Z,9.07
2023-03-13T23:41:25.132Z,4.90
2023-03-13T23:43:53.148Z,3.00
2023-03-13T23:46:28.564Z,4.83
2023-03-13T23:48:58.658Z,6.87
2023-03-13T23:51:27.403Z,5.33
2023-03-13T23:53:55.421Z,4.20
2023-03-13T23:56:25.494Z,7.47
2023-03-13T23:58:56.420Z,4.60
